createdAt,value
2022-08-28T00:00:49.280Z,18.60
2022-08-28T00:03:18.185Z,19.10
2022-08-28T00:05:47.800Z,20.33
2022-08-28T00:08:17.923Z,20.30
2022-08-28T00:10:48.490Z,15.30
2022-08-28T00:13:21.805Z,17.80
2022-08-28T00:15:58.098Z,19.92
2022-08-28T00:18:31.893Z,19.33
2022-08-28T00:21:01.467Z,15.52
2022-08-28T00:23:42.567Z,19.17
2022-08-28T00:26:34.735Z,21.45
2022-08-28T00:29:03.626Z,20.77
2022-08-28T00:31:32.512Z,22.52
2022-08-28T00:34:04.425Z,17.90
2022-08-28T00:36:33.983Z,19.40
2022-08-28T00:39:03.024Z,20.42
2022-08-28T00:41:34.492Z,17.05
2022-08-28T00:44:12.700Z,21.50
2022-08-28T00:46:42.996Z,19.95
2022-08-28T00:49:12.195Z,16.58
2022-08-28T00:51:59.611Z,18.35
2022-08-28T00:54:29.783Z,15.15
2022-08-28T00:57:01.421Z,26.02
2022-08-28T00:59:30.393Z,16.85
2022-08-28T01:02:02.448Z,16.38
2022-08-28T01:04:33.456Z,19.70
2022-08-28T01:07:08.349Z,20.35
2022-08-28T01:12:13.099Z,19.70
2022-08-28T01:14:46.022Z,23.17
2022-08-28T01:17:16.797Z,16.88
2022-08-28T01:19:55.597Z,11.18
2022-08-28T01:22:34.987Z,24.27
2022-08-28T01:25:08.685Z,17.92
2022-08-28T01:27:37.621Z,25.73
2022-08-28T01:30:07.155Z,18.60
2022-08-28T01:32:42.915Z,17.17
2022-08-28T01:35:16.810Z,21.23
2022-08-28T01:37:46.897Z,26.23
2022-08-28T01:40:29.065Z,13.68
2022-08-28T01:43:10.962Z,18.33
2022-08-28T01:45:40.572Z,14.70
2022-08-28T01:48:10.308Z,18.90
2022-08-28T01:50:40.532Z,19.88
2022-08-28T01:53:12.296Z,20.02
2022-08-28T01:55:43.574Z,18.90
2022-08-28T01:58:13.735Z,22.75
2022-08-28T02:00:43.626Z,18.33
2022-08-28T02:03:13.794Z,18.92
2022-08-28T02:05:44.177Z,23.55
2022-08-28T02:08:14.128Z,17.73
2022-08-28T02:10:45.152Z,17.92
2022-08-28T02:13:14.693Z,22.17
2022-08-28T02:15:44.734Z,14.02
2022-08-28T02:18:14.676Z,19.00
2022-08-28T02:20:44.062Z,15.50
2022-08-28T02:23:12.842Z,16.30
2022-08-28T02:25:41.971Z,20.98
2022-08-28T02:28:12.327Z,21.10
2022-08-28T02:30:41.651Z,21.65
2022-08-28T02:33:10.516Z,17.80
2022-08-28T02:35:41.623Z,16.55
2022-08-28T02:38:10.780Z,20.98
2022-08-28T02:40:41.311Z,19.33
2022-08-28T02:43:11.624Z,15.55
2022-08-28T02:45:40.913Z,20.17
2022-08-28T02:48:17.025Z,17.63
2022-08-28T02:50:47.239Z,20.58
2022-08-28T02:53:16.319Z,18.10
2022-08-28T02:55:45.421Z,13.75
2022-08-28T02:58:15.763Z,13.60
2022-08-28T03:00:44.764Z,17.73
2022-08-28T03:03:13.630Z,15.40
2022-08-28T03:05:42.484Z,19.35
2022-08-28T03:08:11.354Z,16.90
2022-08-28T03:10:40.186Z,18.05
2022-08-28T03:13:09.057Z,17.42
2022-08-28T03:15:42.173Z,16.33
2022-08-28T03:18:15.156Z,14.75
2022-08-28T03:20:45.598Z,18.35
2022-08-28T03:23:30.273Z,19.13
2022-08-28T03:26:02.306Z,17.90
2022-08-28T03:28:34.814Z,18.85
2022-08-28T03:31:06.078Z,19.40
2022-08-28T03:33:35.174Z,17.90
2022-08-28T03:36:04.891Z,16.92
2022-08-28T03:38:33.963Z,22.77
2022-08-28T03:41:03.704Z,24.35
2022-08-28T03:43:33.619Z,17.77
2022-08-28T03:46:06.015Z,22.05
2022-08-28T03:48:37.621Z,17.90
2022-08-28T03:51:09.068Z,21.88
2022-08-28T03:53:38.414Z,18.02
2022-08-28T03:56:08.234Z,19.45
2022-08-28T03:58:37.222Z,16.08
2022-08-28T04:01:08.046Z,27.23
2022-08-28T04:03:37.772Z,18.60
2022-08-28T04:06:07.082Z,24.08
2022-08-28T04:08:35.863Z,13.98
2022-08-28T04:11:05.002Z,20.00
2022-08-28T04:13:34.376Z,19.60
2022-08-28T04:16:07.895Z,17.73
2022-08-28T04:18:39.644Z,24.10
2022-08-28T04:21:11.906Z,14.75
2022-08-28T04:23:43.801Z,21.10
2022-08-28T04:26:15.127Z,24.42
2022-08-28T04:28:45.167Z,24.15
2022-08-28T04:31:15.024Z,22.02
2022-08-28T04:33:45.783Z,19.92
2022-08-28T04:36:17.364Z,18.48
2022-08-28T04:38:46.932Z,19.38
2022-08-28T04:41:17.202Z,13.70
2022-08-28T04:43:46.192Z,21.67
2022-08-28T04:46:16.480Z,18.25
2022-08-28T04:48:46.586Z,18.80
2022-08-28T04:51:16.325Z,22.20
2022-08-28T04:53:45.692Z,22.15
2022-08-28T04:56:15.610Z,16.65
2022-08-28T04:58:45.685Z,23.85
2022-08-28T05:01:18.875Z,21.60
2022-08-28T05:03:53.256Z,58.05
2022-08-28T05:06:23.064Z,27.38
2022-08-28T05:08:54.394Z,30.02
2022-08-28T05:11:34.314Z,22.40
2022-08-28T05:14:05.591Z,65.00
2022-08-28T05:16:40.901Z,20.55
2022-08-28T05:19:11.419Z,19.52
2022-08-28T05:21:42.893Z,21.63
2022-08-28T05:24:13.952Z,21.65
2022-08-28T05:26:48.022Z,19.42
2022-08-28T05:29:17.896Z,16.67
2022-08-28T05:31:47.944Z,23.40
2022-08-28T05:34:18.851Z,20.52
2022-08-28T05:36:47.774Z,18.75
2022-08-28T05:39:18.316Z,19.77
2022-08-28T05:41:48.152Z,21.30
2022-08-28T05:44:18.607Z,19.23
2022-08-28T05:46:48.752Z,21.63
2022-08-28T05:49:23.480Z,17.02
2022-08-28T05:51:52.591Z,19.92
2022-08-28T05:54:21.459Z,24.33
2022-08-28T05:56:50.671Z,18.52
2022-08-28T05:59:19.497Z,18.98
2022-08-28T06:01:50.642Z,19.70
2022-08-28T06:04:23.886Z,19.90
2022-08-28T06:06:53.243Z,18.92
2022-08-28T06:09:28.771Z,20.20
2022-08-28T06:12:01.019Z,21.88
2022-08-28T06:14:32.440Z,20.00
2022-08-28T06:17:01.496Z,19.83
2022-08-28T06:19:36.345Z,24.70
2022-08-28T06:22:09.808Z,25.20
2022-08-28T06:24:38.863Z,18.15
2022-08-28T06:27:07.976Z,17.42
2022-08-28T06:29:36.885Z,17.67
2022-08-28T06:32:05.956Z,22.00
2022-08-28T06:34:36.194Z,20.65
2022-08-28T06:37:05.324Z,23.23
2022-08-28T06:39:34.089Z,22.10
2022-08-28T06:42:03.020Z,22.88
2022-08-28T06:44:32.501Z,20.08
2022-08-28T06:47:02.167Z,19.92
2022-08-28T06:49:31.073Z,17.83
2022-08-28T06:52:01.399Z,19.92
2022-08-28T06:54:31.153Z,19.48
2022-08-28T06:57:00.181Z,21.20
2022-08-28T06:59:29.112Z,19.13
2022-08-28T07:01:58.013Z,18.30
2022-08-28T07:04:27.800Z,17.98
2022-08-28T07:06:58.365Z,19.95
2022-08-28T07:09:28.646Z,24.02
2022-08-28T07:11:57.418Z,26.13
2022-08-28T07:14:26.459Z,23.98
2022-08-28T07:16:56.130Z,21.55
2022-08-28T07:19:25.207Z,22.98
2022-08-28T07:21:53.972Z,29.55
2022-08-28T07:24:23.505Z,27.58
2022-08-28T07:26:54.456Z,22.95
2022-08-28T07:29:23.690Z,21.45
2022-08-28T07:31:56.078Z,15.88
2022-08-28T07:34:27.302Z,21.98
2022-08-28T07:36:58.379Z,18.65
2022-08-28T07:39:27.219Z,32.78
2022-08-28T07:41:57.558Z,22.60
2022-08-28T07:44:43.758Z,25.13
2022-08-28T07:47:12.844Z,26.17
2022-08-28T07:49:42.221Z,25.05
2022-08-28T07:52:12.253Z,21.20
2022-08-28T07:54:41.703Z,23.25
2022-08-28T07:57:11.879Z,23.10
2022-08-28T07:59:43.014Z,16.52
2022-08-28T08:02:11.942Z,25.27
2022-08-28T08:04:41.304Z,19.55
2022-08-28T08:07:12.913Z,19.73
2022-08-28T08:09:44.146Z,22.35
2022-08-28T08:12:15.966Z,23.65
2022-08-28T08:14:45.513Z,21.15
2022-08-28T08:17:14.262Z,17.08
2022-08-28T08:19:43.079Z,22.08
2022-08-28T08:22:12.025Z,20.40
2022-08-28T08:24:41.824Z,24.25
2022-08-28T08:27:11.503Z,16.77
2022-08-28T08:29:41.793Z,25.80
2022-08-28T08:32:12.431Z,20.33
2022-08-28T08:34:43.218Z,21.90
2022-08-28T08:37:13.676Z,24.00
2022-08-28T08:39:44.504Z,21.75
2022-08-28T08:42:23.030Z,22.75
2022-08-28T08:45:07.417Z,22.73
2022-08-28T08:47:41.766Z,20.27
2022-08-28T08:50:17.881Z,27.40
2022-08-28T08:52:56.061Z,26.52
2022-08-28T08:55:28.948Z,24.80
2022-08-28T09:00:34.269Z,19.77
2022-08-28T09:03:07.876Z,22.23
2022-08-28T09:05:46.853Z,16.50
2022-08-28T09:08:25.408Z,20.75
2022-08-28T09:11:06.427Z,22.05
2022-08-28T09:13:54.424Z,20.50
2022-08-28T09:16:31.625Z,16.40
2022-08-28T09:19:01.849Z,22.17
2022-08-28T09:21:34.230Z,21.17
2022-08-28T09:24:08.542Z,20.60
2022-08-28T09:26:40.765Z,25.33
2022-08-28T09:29:18.186Z,22.92
2022-08-28T09:31:48.414Z,18.13
2022-08-28T09:34:27.743Z,21.23
2022-08-28T09:36:58.642Z,19.58
2022-08-28T09:39:29.674Z,19.05
2022-08-28T09:42:20.414Z,18.50
2022-08-28T09:45:00.221Z,13.63
2022-08-28T09:47:52.308Z,12.55
2022-08-28T09:50:36.551Z,14.85
2022-08-28T09:53:19.126Z,17.23
2022-08-28T09:55:57.698Z,16.23
2022-08-28T09:58:34.203Z,15.88
2022-08-28T10:01:22.233Z,13.25
2022-08-28T10:03:57.521Z,19.83
2022-08-28T10:06:32.153Z,17.85
2022-08-28T10:09:15.095Z,14.93
2022-08-28T10:11:56.138Z,20.33
2022-08-28T10:14:41.343Z,16.10
2022-08-28T10:17:21.668Z,13.30
2022-08-28T10:20:00.508Z,22.20
2022-08-28T10:22:39.823Z,15.55
2022-08-28T10:25:22.180Z,21.75
2022-08-28T10:28:05.577Z,14.65
2022-08-28T10:30:40.432Z,20.95
2022-08-28T10:33:26.504Z,16.60
2022-08-28T10:36:01.029Z,16.55
2022-08-28T10:38:40.092Z,19.98
2022-08-28T10:41:13.330Z,13.48
2022-08-28T10:43:48.024Z,14.30
2022-08-28T10:46:27.216Z,16.60
2022-08-28T10:49:00.845Z,16.27
2022-08-28T10:51:39.482Z,12.95
2022-08-28T10:54:21.017Z,13.02
2022-08-28T10:56:56.666Z,19.35
2022-08-28T10:59:27.823Z,14.55
2022-08-28T11:01:57.348Z,14.18
2022-08-28T11:04:29.325Z,14.65
2022-08-28T11:07:04.214Z,19.50
2022-08-28T11:09:36.970Z,16.13
2022-08-28T11:12:10.298Z,14.10
2022-08-28T11:14:47.960Z,16.00
2022-08-28T11:17:40.789Z,15.07
2022-08-28T11:20:16.235Z,13.17
2022-08-28T11:22:50.323Z,16.45
2022-08-28T11:25:26.532Z,15.70
2022-08-28T11:28:18.692Z,16.27
2022-08-28T11:30:49.167Z,17.33
2022-08-28T11:33:40.352Z,15.50
2022-08-28T11:36:14.296Z,18.10
2022-08-28T11:39:07.363Z,14.68
2022-08-28T11:44:42.879Z,13.18
2022-08-28T11:47:56.919Z,18.67
2022-08-28T11:50:30.315Z,15.50
2022-08-28T11:53:36.684Z,19.02
2022-08-28T11:56:31.366Z,17.67
2022-08-28T11:59:34.852Z,19.13
2022-08-28T12:02:47.767Z,19.98
2022-08-28T12:05:45.176Z,22.27
2022-08-28T12:08:45.520Z,24.60
2022-08-28T12:12:09.278Z,29.30
2022-08-28T12:15:10.210Z,27.80
2022-08-28T12:17:53.474Z,27.15
2022-08-28T12:20:39.066Z,30.83
2022-08-28T12:23:37.806Z,39.42
2022-08-28T12:26:10.215Z,30.73
2022-08-28T12:31:52.103Z,35.50
2022-08-28T12:34:29.277Z,32.33
2022-08-28T12:36:59.727Z,31.45
2022-08-28T12:39:30.145Z,31.83
2022-08-28T12:42:00.427Z,39.83
2022-08-28T12:44:33.804Z,28.95
2022-08-28T12:47:02.823Z,32.65
2022-08-28T12:49:35.323Z,34.22
2022-08-28T12:52:16.935Z,32.45
2022-08-28T12:54:47.248Z,38.88
2022-08-28T12:57:17.936Z,31.23
2022-08-28T12:59:50.074Z,32.65
2022-08-28T13:02:27.430Z,38.20
2022-08-28T13:04:59.669Z,37.25
2022-08-28T13:07:32.729Z,39.65
2022-08-28T13:10:06.744Z,38.15
2022-08-28T13:12:55.589Z,38.92
2022-08-28T13:15:57.060Z,44.67
2022-08-28T13:19:11.889Z,41.17
2022-08-28T13:21:58.633Z,44.78
2022-08-28T13:24:47.007Z,50.55
2022-08-28T13:27:23.059Z,52.92
2022-08-28T13:30:02.804Z,54.45
2022-08-28T13:32:36.809Z,51.72
2022-08-28T13:35:13.104Z,57.67
2022-08-28T13:37:45.488Z,54.75
2022-08-28T13:40:44.454Z,58.85
2022-08-28T13:43:11.856Z,63.55
2022-08-28T13:45:44.105Z,67.40
2022-08-28T13:48:16.686Z,73.45
2022-08-28T13:50:48.039Z,78.65
2022-08-28T13:53:19.443Z,78.13
2022-08-28T13:55:50.695Z,80.47
2022-08-28T13:58:19.624Z,89.20
2022-08-28T14:00:51.768Z,88.10
2022-08-28T14:03:37.645Z,87.90
2022-08-28T14:06:09.331Z,83.43
2022-08-28T14:08:38.846Z,89.20
2022-08-28T14:11:08.605Z,84.80
2022-08-28T14:13:47.140Z,81.78
2022-08-28T14:16:25.540Z,89.03
2022-08-28T14:18:55.881Z,93.88
2022-08-28T14:21:25.358Z,92.00
2022-08-28T14:23:54.120Z,89.20
2022-08-28T14:26:23.033Z,97.95
2022-08-28T14:28:52.164Z,92.95
2022-08-28T14:31:21.604Z,96.60
2022-08-28T14:33:58.679Z,86.70
2022-08-28T14:36:30.149Z,89.10
2022-08-28T14:41:35.552Z,90.50
2022-08-28T14:44:05.620Z,88.20
2022-08-28T14:46:37.013Z,87.03
2022-08-28T14:49:09.121Z,86.78
2022-08-28T14:51:39.965Z,98.88
2022-08-28T14:54:11.176Z,91.38
2022-08-28T14:56:41.901Z,88.15
2022-08-28T14:59:17.483Z,88.40
2022-08-28T15:01:52.538Z,86.45
2022-08-28T15:04:25.153Z,81.43
2022-08-28T15:07:00.030Z,85.38
2022-08-28T15:09:31.443Z,78.70
2022-08-28T15:12:00.587Z,85.88
2022-08-28T15:14:30.524Z,84.88
2022-08-28T15:17:00.367Z,84.70
2022-08-28T15:19:31.155Z,90.53
2022-08-28T15:22:00.730Z,88.30
2022-08-28T15:24:34.481Z,92.47
2022-08-28T15:27:03.582Z,97.88
2022-08-28T15:29:32.784Z,98.00
2022-08-28T15:32:04.511Z,94.90
2022-08-28T15:34:34.825Z,84.97
2022-08-28T15:37:03.692Z,88.40
2022-08-28T15:39:53.996Z,89.63
2022-08-28T15:42:23.317Z,84.50
2022-08-28T15:44:52.032Z,83.03
2022-08-28T15:47:20.893Z,78.28
2022-08-28T15:49:55.822Z,72.10
2022-08-28T15:52:26.083Z,67.47
2022-08-28T15:54:55.463Z,65.72
2022-08-28T15:57:24.589Z,61.92
2022-08-28T15:59:53.471Z,58.78
2022-08-28T16:02:24.645Z,52.08
2022-08-28T16:04:55.693Z,48.72
2022-08-28T16:07:25.145Z,40.25
2022-08-28T16:09:54.167Z,43.13
2022-08-28T16:12:23.005Z,39.55
2022-08-28T16:14:51.813Z,32.65
2022-08-28T16:17:20.569Z,29.83
2022-08-28T16:19:49.359Z,27.70
2022-08-28T16:22:20.636Z,21.75
2022-08-28T16:24:49.496Z,20.90
2022-08-28T16:27:18.806Z,17.45
2022-08-28T16:29:49.605Z,20.80
2022-08-28T16:32:23.066Z,19.75
2022-08-28T16:34:53.314Z,15.85
2022-08-28T16:37:24.487Z,18.00
2022-08-28T16:39:56.533Z,15.55
2022-08-28T16:42:30.904Z,15.55
2022-08-28T16:45:02.131Z,16.38
2022-08-28T16:47:33.215Z,15.35
2022-08-28T16:50:04.371Z,15.15
2022-08-28T16:52:36.025Z,16.55
2022-08-28T16:55:05.696Z,15.45
2022-08-28T16:57:35.163Z,14.15
2022-08-28T17:00:10.248Z,13.40
2022-08-28T17:02:39.322Z,14.07
2022-08-28T17:05:09.629Z,7.88
2022-08-28T17:07:41.082Z,11.40
2022-08-28T17:10:12.191Z,8.68
2022-08-28T17:12:41.729Z,8.88
2022-08-28T17:15:11.594Z,11.10
2022-08-28T17:17:41.002Z,10.68
2022-08-28T17:20:32.577Z,16.65
2022-08-28T17:23:02.029Z,10.07
2022-08-28T17:25:31.536Z,11.05
2022-08-28T17:28:00.593Z,9.70
2022-08-28T17:30:29.606Z,13.55
2022-08-28T17:32:58.613Z,11.95
2022-08-28T17:35:27.674Z,10.55
2022-08-28T17:37:57.162Z,11.10
2022-08-28T17:40:28.030Z,11.60
2022-08-28T17:42:57.233Z,9.40
2022-08-28T17:45:26.234Z,14.20
2022-08-28T17:47:55.539Z,13.98
2022-08-28T17:50:24.936Z,10.95
2022-08-28T17:52:53.853Z,11.32
2022-08-28T17:55:22.688Z,12.75
2022-08-28T17:57:52.847Z,9.75
2022-08-28T18:00:22.509Z,14.77
2022-08-28T18:02:52.459Z,10.18
2022-08-28T18:05:21.685Z,13.50
2022-08-28T18:07:51.068Z,11.50
2022-08-28T18:10:21.865Z,14.00
2022-08-28T18:12:53.163Z,14.65
2022-08-28T18:15:22.341Z,13.73
2022-08-28T18:17:51.244Z,10.73
2022-08-28T18:20:20.958Z,13.82
2022-08-28T18:22:50.378Z,9.90
2022-08-28T18:25:33.708Z,13.50
2022-08-28T18:30:35.659Z,8.85
2022-08-28T18:33:06.274Z,12.60
2022-08-28T18:35:42.104Z,14.30
2022-08-28T18:38:14.992Z,12.45
2022-08-28T18:40:45.750Z,12.27
2022-08-28T18:43:16.500Z,15.05
2022-08-28T18:45:45.943Z,12.82
2022-08-28T18:48:15.526Z,12.27
2022-08-28T18:50:46.567Z,11.32
2022-08-28T18:53:16.391Z,13.00
2022-08-28T18:55:46.349Z,10.70
2022-08-28T18:58:17.547Z,10.32
2022-08-28T19:00:46.834Z,13.57
2022-08-28T19:03:16.291Z,14.90
2022-08-28T19:05:45.561Z,14.82
2022-08-28T19:08:15.526Z,10.73
2022-08-28T19:10:44.748Z,13.40
2022-08-28T19:13:14.113Z,11.13
2022-08-28T19:15:50.839Z,13.93
2022-08-28T19:18:35.549Z,12.98
2022-08-28T19:21:08.665Z,13.60
2022-08-28T19:23:38.763Z,25.13
2022-08-28T19:26:13.929Z,15.55
2022-08-28T19:28:44.047Z,14.88
2022-08-28T19:31:14.814Z,15.00
2022-08-28T19:33:43.832Z,13.43
2022-08-28T19:36:13.672Z,11.88
2022-08-28T19:38:43.291Z,15.02
2022-08-28T19:41:14.602Z,12.82
2022-08-28T19:43:44.843Z,15.60
2022-08-28T19:46:20.070Z,13.52
2022-08-28T19:48:52.614Z,10.05
2022-08-28T19:51:24.429Z,11.48
2022-08-28T19:53:58.268Z,11.93
2022-08-28T19:56:29.246Z,14.43
2022-08-28T19:59:01.462Z,12.95
2022-08-28T20:01:35.477Z,11.60
2022-08-28T20:04:05.864Z,8.82
2022-08-28T20:06:36.228Z,14.15
2022-08-28T20:09:10.667Z,10.82
2022-08-28T20:11:42.336Z,11.23
2022-08-28T20:14:11.354Z,13.35
2022-08-28T20:16:44.396Z,12.57
2022-08-28T20:19:15.023Z,10.07
2022-08-28T20:21:47.143Z,12.60
2022-08-28T20:24:20.433Z,13.65
2022-08-28T20:29:18.937Z,11.85
2022-08-28T20:31:51.414Z,10.35
2022-08-28T20:34:21.990Z,12.52
2022-08-28T20:36:51.297Z,15.02
2022-08-28T20:39:21.926Z,10.88
2022-08-28T20:41:51.346Z,16.00
2022-08-28T20:44:21.507Z,11.38
2022-08-28T20:46:53.757Z,14.93
2022-08-28T20:49:24.465Z,11.95
2022-08-28T20:52:01.243Z,9.10
2022-08-28T20:54:32.967Z,14.88
2022-08-28T20:57:04.163Z,8.65
2022-08-28T20:59:35.471Z,11.48
2022-08-28T21:02:12.709Z,9.48
2022-08-28T21:04:43.022Z,13.23
2022-08-28T21:07:12.670Z,10.77
2022-08-28T21:10:04.560Z,10.95
2022-08-28T21:12:31.120Z,42.33
2022-08-28T21:15:00.512Z,15.80
2022-08-28T21:17:31.097Z,11.18
2022-08-28T21:20:04.337Z,13.23
2022-08-28T21:22:35.127Z,11.35
2022-08-28T21:25:05.783Z,10.65
2022-08-28T21:27:35.187Z,12.30
2022-08-28T21:30:04.724Z,11.38
2022-08-28T21:32:35.405Z,15.27
2022-08-28T21:35:06.319Z,13.77
2022-08-28T21:37:35.596Z,11.43
2022-08-28T21:40:06.202Z,13.13
2022-08-28T21:42:35.448Z,21.13
2022-08-28T21:45:11.209Z,14.13
2022-08-28T21:47:43.287Z,13.30
2022-08-28T21:50:13.032Z,13.27
2022-08-28T21:52:42.769Z,12.40
2022-08-28T21:55:14.766Z,12.65
2022-08-28T21:57:44.886Z,14.93
2022-08-28T22:00:18.930Z,11.80
2022-08-28T22:02:49.484Z,11.77
2022-08-28T22:05:18.608Z,9.27
2022-08-28T22:07:48.365Z,14.38
2022-08-28T22:10:17.911Z,11.73
2022-08-28T22:12:46.762Z,16.60
2022-08-28T22:15:15.781Z,15.38
2022-08-28T22:17:44.614Z,11.65
2022-08-28T22:20:15.278Z,11.27
2022-08-28T22:23:01.241Z,11.82
2022-08-28T22:25:30.349Z,13.52
2022-08-28T22:28:04.119Z,13.60
2022-08-28T22:30:33.717Z,15.68
2022-08-28T22:33:04.163Z,16.58
2022-08-28T22:35:34.571Z,15.70
2022-08-28T22:38:03.698Z,12.80
2022-08-28T22:40:33.132Z,15.23
2022-08-28T22:43:01.986Z,15.23
2022-08-28T22:45:31.323Z,14.52
2022-08-28T22:48:00.208Z,16.55
2022-08-28T22:50:29.166Z,16.50
2022-08-28T22:52:59.499Z,11.38
2022-08-28T22:55:28.592Z,13.23
2022-08-28T22:57:57.925Z,13.30
2022-08-28T23:00:29.334Z,16.10
2022-08-28T23:02:59.719Z,11.85
2022-08-28T23:05:30.278Z,13.90
2022-08-28T23:08:00.528Z,17.10
2022-08-28T23:10:55.325Z,18.05
2022-08-28T23:13:19.902Z,15.60
2022-08-28T23:15:49.161Z,15.10
2022-08-28T23:18:18.430Z,16.27
2022-08-28T23:20:47.412Z,14.48
2022-08-28T23:23:21.268Z,15.32
2022-08-28T23:25:51.415Z,13.45
2022-08-28T23:28:21.332Z,15.73
2022-08-28T23:30:50.100Z,12.57
2022-08-28T23:33:23.687Z,12.35
2022-08-28T23:35:52.965Z,15.05
2022-08-28T23:38:23.562Z,19.40
2022-08-28T23:40:52.459Z,13.20
2022-08-28T23:43:21.597Z,13.43
2022-08-28T23:45:50.579Z,10.50
2022-08-28T23:48:19.544Z,13.75
2022-08-28T23:50:48.581Z,14.63
2022-08-28T23:53:17.666Z,13.18
2022-08-28T23:55:48.649Z,8.38
2022-08-28T23:58:20.752Z,10.77
